Terminal Aerodrome Forecast
Issued by NWS Wilmington, OH

Current Version | Previous Version | Graphics & Text | Print | Product List | Glossary On
Versions: 1 2 3 4 5 6 7 8 9 10 11 12 13 14 15 16 17 18 19 20 21 22 23 24 25 26 27 28 29 30
000
FTUS41 KILN 280500
TAFCVG
TAF
KCVG 280536Z 2806/2912 23004KT P6SM FEW100 BKN250
      TEMPO 2809/2812 4SM BR
     FM281500 09005KT P6SM SCT025
     FM281800 14006KT P6SM SCT040
     FM290100 17004KT P6SM SCT050
     FM290600 18005KT P6SM SCT050 SCT080 BKN120=

USA.gov is the U.S. government's official web portal to all federal, state and local government web resources and services.